createdAt,value
2018-02-05T00:00:01.188Z,99.52
2018-02-05T00:01:01.237Z,99.43
2018-02-05T00:02:01.197Z,99.24
2018-02-05T00:03:01.263Z,99.15
2018-02-05T00:04:01.283Z,99.43
2018-02-05T00:05:01.328Z,99.43
2018-02-05T00:06:01.291Z,99.33
2018-02-05T00:07:01.250Z,99.33
2018-02-05T00:08:01.258Z,99.43
2018-02-05T00:09:01.266Z,99.15
2018-02-05T00:10:01.289Z,98.86
2018-02-05T00:11:01.289Z,98.58
2018-02-05T00:12:01.298Z,98.86
2018-02-05T00:13:01.310Z,98.67
2018-02-05T00:14:01.334Z,98.86
2018-02-05T00:15:01.328Z,98.39
2018-02-05T00:16:01.355Z,98.67
2018-02-05T00:17:01.365Z,98.48
2018-02-05T00:18:01.359Z,98.29
2018-02-05T00:19:01.522Z,98.77
2018-02-05T00:20:01.397Z,98.29
2018-02-05T00:21:01.451Z,98.82
2018-02-05T00:22:01.403Z,98.39
2018-02-05T00:23:01.414Z,98.39
2018-02-05T00:24:01.423Z,98.48
2018-02-05T00:25:01.435Z,98.48
2018-02-05T00:26:01.443Z,98.39
2018-02-05T00:27:01.463Z,98.20
2018-02-05T00:28:01.607Z,98.20
2018-02-05T00:29:01.470Z,98.15
2018-02-05T00:30:01.485Z,98.58
2018-02-05T00:31:01.491Z,98.39
2018-02-05T00:32:01.508Z,98.48
2018-02-05T00:33:02.312Z,98.10
2018-02-05T00:35:01.538Z,98.10
2018-02-05T00:36:02.341Z,98.20
2018-02-05T00:37:01.552Z,98.10
2018-02-05T00:38:01.572Z,98.10
2018-02-05T00:39:01.573Z,98.67
2018-02-05T00:40:01.582Z,98.48
2018-02-05T00:41:01.594Z,98.01
2018-02-05T00:43:01.765Z,98.20
2018-02-05T00:44:01.628Z,98.29
2018-02-05T00:45:01.634Z,98.01
2018-02-05T00:46:01.874Z,98.29
2018-02-05T00:47:01.655Z,98.96
2018-02-05T00:48:01.664Z,98.58
2018-02-05T00:49:01.674Z,98.77
2018-02-05T00:50:01.694Z,98.67
2018-02-05T00:51:01.696Z,98.58
2018-02-05T00:52:01.856Z,98.67
2018-02-05T00:53:01.715Z,98.39
2018-02-05T00:54:01.736Z,98.67
2018-02-05T00:55:01.838Z,98.39
2018-02-05T00:56:01.745Z,98.39
2018-02-05T00:57:01.806Z,98.58
2018-02-05T00:58:01.928Z,98.58
2018-02-05T00:59:01.927Z,98.96
2018-02-05T01:00:01.786Z,99.05
2018-02-05T01:01:01.815Z,99.43
2018-02-05T01:02:01.808Z,99.43
2018-02-05T01:03:01.817Z,99.43
2018-02-05T01:04:01.830Z,99.43
2018-02-05T01:05:01.847Z,99.33
2018-02-05T01:06:02.407Z,99.43
2018-02-05T01:07:02.073Z,99.62
2018-02-05T01:08:01.965Z,99.99
2018-02-05T01:09:02.052Z,99.99
2018-02-05T01:10:01.884Z,99.90
2018-02-05T01:11:01.894Z,99.80
2018-02-05T01:12:02.055Z,99.99
2018-02-05T01:13:02.762Z,99.99
2018-02-05T01:14:02.076Z,99.99
2018-02-05T01:15:02.084Z,99.99
2018-02-05T01:16:02.117Z,99.99
2018-02-05T01:17:01.962Z,99.99
2018-02-05T01:18:01.963Z,99.99
2018-02-05T01:19:01.974Z,99.99
2018-02-05T01:20:02.133Z,99.99
2018-02-05T01:21:01.992Z,99.99
2018-02-05T01:22:02.008Z,99.99
2018-02-05T01:23:02.013Z,99.99
2018-02-05T01:24:02.022Z,99.99
2018-02-05T01:25:02.031Z,99.99
2018-02-05T01:26:02.049Z,99.99
2018-02-05T01:27:02.053Z,99.99
2018-02-05T01:28:02.067Z,99.99
2018-02-05T01:29:02.074Z,99.99
2018-02-05T01:30:02.266Z,99.99
2018-02-05T01:31:02.190Z,99.99
2018-02-05T01:32:02.101Z,99.99
2018-02-05T01:33:02.109Z,99.99
2018-02-05T01:35:02.166Z,99.99
2018-02-05T01:36:02.161Z,99.99
2018-02-05T01:37:02.253Z,99.99
2018-02-05T01:38:02.610Z,99.99
2018-02-05T01:39:02.450Z,99.99
2018-02-05T01:41:02.241Z,99.99
2018-02-05T01:42:02.198Z,99.99
2018-02-05T01:43:02.357Z,99.99
2018-02-05T01:44:02.217Z,99.99
2018-02-05T01:45:02.229Z,99.99
2018-02-05T01:46:02.537Z,99.99
2018-02-05T01:47:02.247Z,99.99
2018-02-05T01:48:02.307Z,99.99
2018-02-05T01:49:02.364Z,99.99
2018-02-05T01:50:02.521Z,99.99
2018-02-05T01:51:02.287Z,99.99
2018-02-05T01:52:02.297Z,99.99
2018-02-05T01:53:02.405Z,99.99
2018-02-05T01:54:02.416Z,99.99
2018-02-05T01:55:02.325Z,99.99
2018-02-05T01:56:02.336Z,99.99
2018-02-05T01:57:02.495Z,99.99
2018-02-05T01:58:02.456Z,99.99
2018-02-05T01:59:02.365Z,99.99
2018-02-05T02:00:02.375Z,99.99
2018-02-05T02:01:02.384Z,99.99
2018-02-05T02:02:02.393Z,99.99
2018-02-05T02:03:02.431Z,99.99
2018-02-05T02:04:02.418Z,99.99
2018-02-05T02:07:02.797Z,99.99
2018-02-05T02:08:02.452Z,99.99
2018-02-05T02:09:02.479Z,99.99
2018-02-05T02:10:02.474Z,99.99
2018-02-05T02:11:02.481Z,99.99
2018-02-05T02:12:02.498Z,99.90
2018-02-05T02:14:02.573Z,99.80
2018-02-05T02:15:02.520Z,99.80
2018-02-05T02:16:02.617Z,99.99
2018-02-05T02:17:02.784Z,99.80
2018-02-05T02:19:02.580Z,99.90
2018-02-05T02:20:02.569Z,99.99
2018-02-05T02:21:02.579Z,99.99
2018-02-05T02:22:02.925Z,99.90
2018-02-05T02:23:02.598Z,99.99
2018-02-05T02:24:02.608Z,99.43
2018-02-05T02:25:02.769Z,99.43
2018-02-05T02:26:02.628Z,99.43
2018-02-05T02:27:02.636Z,99.99
2018-02-05T02:28:02.647Z,99.99
2018-02-05T02:29:03.067Z,99.99
2018-02-05T02:30:02.996Z,99.43
2018-02-05T02:31:03.444Z,99.24
2018-02-05T02:32:02.686Z,99.43
2018-02-05T02:33:02.701Z,99.52
2018-02-05T02:34:02.926Z,99.99
2018-02-05T02:35:02.722Z,99.99
2018-02-05T02:36:02.749Z,99.62
2018-02-05T02:37:03.001Z,99.99
2018-02-05T02:38:02.744Z,99.99
2018-02-05T02:39:02.754Z,99.99
2018-02-05T02:40:02.764Z,99.99
2018-02-05T02:41:02.774Z,99.99
2018-02-05T02:42:02.784Z,99.99
2018-02-05T02:45:02.811Z,99.99
2018-02-05T02:46:02.825Z,99.99
2018-02-05T02:47:02.830Z,99.99
2018-02-05T02:48:02.845Z,99.99
2018-02-05T02:49:02.999Z,99.99
2018-02-05T02:50:02.858Z,99.99
2018-02-05T02:51:02.870Z,99.99
2018-02-05T02:52:02.881Z,99.99
2018-02-05T02:53:02.990Z,99.99
2018-02-05T02:54:02.900Z,99.99
2018-02-05T02:55:03.114Z,99.99
2018-02-05T02:56:02.920Z,99.99
2018-02-05T02:57:02.930Z,99.99
2018-02-05T02:58:02.938Z,99.99
2018-02-05T02:59:03.048Z,99.99
2018-02-05T03:00:02.975Z,99.99
2018-02-05T03:01:02.969Z,99.99
2018-02-05T03:02:02.983Z,99.99
2018-02-05T03:03:02.988Z,99.99
2018-02-05T03:04:03.009Z,99.99
2018-02-05T03:05:03.012Z,99.99
2018-02-05T03:06:03.038Z,99.99
2018-02-05T03:08:03.186Z,99.99
2018-02-05T03:09:04.002Z,99.99
2018-02-05T03:10:03.812Z,99.99
2018-02-05T03:11:03.114Z,99.99
2018-02-05T03:12:03.082Z,99.99
2018-02-05T03:13:03.283Z,99.99
2018-02-05T03:14:03.706Z,99.99
2018-02-05T03:15:03.358Z,99.99
2018-02-05T03:17:03.223Z,99.99
2018-02-05T03:18:05.112Z,99.99
2018-02-05T03:20:03.801Z,99.99
2018-02-05T03:21:04.343Z,99.99
2018-02-05T03:22:04.443Z,99.99
2018-02-05T03:23:03.179Z,99.99
2018-02-05T03:24:03.192Z,99.99
2018-02-05T03:25:03.199Z,99.99
2018-02-05T03:26:03.217Z,99.99
2018-02-05T03:27:03.219Z,99.99
2018-02-05T03:28:03.224Z,99.99
2018-02-05T03:29:03.236Z,99.99
2018-02-05T03:30:03.245Z,99.99
2018-02-05T03:31:03.257Z,99.99
2018-02-05T03:32:03.274Z,99.99
2018-02-05T03:33:03.273Z,99.99
2018-02-05T03:34:03.285Z,99.99
2018-02-05T03:35:03.293Z,99.99
2018-02-05T03:36:03.303Z,99.99
2018-02-05T03:37:03.312Z,99.99
2018-02-05T03:38:03.337Z,99.99
2018-02-05T03:39:03.331Z,99.99
2018-02-05T03:41:03.584Z,99.99
2018-02-05T03:42:03.359Z,99.99
2018-02-05T03:43:03.376Z,99.99
2018-02-05T03:44:03.480Z,99.99
2018-02-05T03:47:03.546Z,99.99
2018-02-05T03:48:03.776Z,99.99
2018-02-05T03:50:03.434Z,99.99
2018-02-05T03:51:04.197Z,99.99
2018-02-05T03:52:03.461Z,99.99
2018-02-05T03:54:03.480Z,99.99
2018-02-05T03:55:03.634Z,99.99
2018-02-05T03:56:03.497Z,99.99
2018-02-05T03:57:03.503Z,99.99
2018-02-05T03:58:03.511Z,99.99
2018-02-05T03:59:03.519Z,99.99
2018-02-05T04:00:03.583Z,99.99
2018-02-05T04:01:03.540Z,99.99
2018-02-05T04:02:03.547Z,99.99
2018-02-05T04:03:03.560Z,99.99
2018-02-05T04:04:03.666Z,99.99
2018-02-05T04:05:03.576Z,99.99
2018-02-05T04:06:03.587Z,99.99
2018-02-05T04:07:03.801Z,99.80
2018-02-05T04:08:03.608Z,99.99
2018-02-05T04:09:03.616Z,99.90
2018-02-05T04:10:03.624Z,99.90
2018-02-05T04:11:03.636Z,99.43
2018-02-05T04:12:03.699Z,99.15
2018-02-05T04:13:04.677Z,99.33
2018-02-05T04:16:03.982Z,99.43
2018-02-05T04:18:03.781Z,98.86
2018-02-05T04:22:03.918Z,98.77
2018-02-05T04:23:03.866Z,98.67
2018-02-05T04:24:03.759Z,98.86
2018-02-05T04:25:03.768Z,98.29
2018-02-05T04:26:03.777Z,98.39
2018-02-05T04:27:03.813Z,98.39
2018-02-05T04:28:03.801Z,98.77
2018-02-05T04:29:03.807Z,98.39
2018-02-05T04:30:03.818Z,98.20
2018-02-05T04:31:03.848Z,98.01
2018-02-05T04:32:03.835Z,97.53
2018-02-05T04:33:03.845Z,97.53
2018-02-05T04:34:03.855Z,97.34
2018-02-05T04:35:04.018Z,97.63
2018-02-05T04:36:03.894Z,97.44
2018-02-05T04:37:03.886Z,97.53
2018-02-05T04:38:03.896Z,97.16
2018-02-05T04:39:03.905Z,97.16
2018-02-05T04:40:04.395Z,97.53
2018-02-05T04:41:03.929Z,97.63
2018-02-05T04:42:03.933Z,97.82
2018-02-05T04:43:03.944Z,97.53
2018-02-05T04:44:03.952Z,97.34
2018-02-05T04:46:03.978Z,97.53
2018-02-05T04:47:04.938Z,97.16
2018-02-05T04:48:04.894Z,97.16
2018-02-05T04:50:04.944Z,97.53
2018-02-05T04:51:04.222Z,97.16
2018-02-05T04:53:04.553Z,97.25
2018-02-05T04:54:04.058Z,97.63
2018-02-05T04:55:04.143Z,97.53
2018-02-05T04:56:04.074Z,97.25
2018-02-05T04:57:04.086Z,97.53
2018-02-05T04:58:04.096Z,97.53
2018-02-05T04:59:04.124Z,97.44
2018-02-05T05:00:04.111Z,97.44
2018-02-05T05:01:04.121Z,97.53
2018-02-05T05:02:04.233Z,97.16
2018-02-05T05:03:04.143Z,97.16
2018-02-05T05:04:04.155Z,97.63
2018-02-05T05:05:04.161Z,97.63
2018-02-05T05:06:04.172Z,97.25
2018-02-05T05:07:04.481Z,97.63
2018-02-05T05:08:04.186Z,97.34
2018-02-05T05:09:04.200Z,97.53
2018-02-05T05:10:04.210Z,97.82
2018-02-05T05:11:04.226Z,98.01
2018-02-05T05:14:04.253Z,97.53
2018-02-05T05:15:05.448Z,97.34
2018-02-05T05:17:04.315Z,97.25
2018-02-05T05:18:04.402Z,97.34
2018-02-05T05:19:04.354Z,97.53
2018-02-05T05:20:04.335Z,97.53
2018-02-05T05:21:05.423Z,97.82
2018-02-05T05:22:04.331Z,97.63
2018-02-05T05:23:04.338Z,97.25
2018-02-05T05:24:04.365Z,97.44
2018-02-05T05:26:04.861Z,97.25
2018-02-05T05:27:05.025Z,97.44
2018-02-05T05:28:04.489Z,97.16
2018-02-05T05:29:04.425Z,97.53
2018-02-05T05:30:04.424Z,97.63
2018-02-05T05:31:04.417Z,97.44
2018-02-05T05:33:04.433Z,97.44
2018-02-05T05:34:04.481Z,97.44
2018-02-05T05:35:04.460Z,97.34
2018-02-05T05:37:04.587Z,97.34
2018-02-05T05:38:04.789Z,97.44
2018-02-05T05:39:04.497Z,97.25
2018-02-05T05:40:04.508Z,97.44
2018-02-05T05:41:04.563Z,97.63
2018-02-05T05:43:04.580Z,97.82
2018-02-05T05:44:04.600Z,98.48
2018-02-05T05:47:04.647Z,98.48
2018-02-05T05:50:04.951Z,98.48
2018-02-05T05:51:05.802Z,98.20
2018-02-05T05:53:05.969Z,98.48
2018-02-05T05:56:05.264Z,97.63
2018-02-05T05:57:06.032Z,97.91
2018-02-05T05:58:04.768Z,98.29
2018-02-05T05:59:04.697Z,98.29
2018-02-05T06:00:05.524Z,98.48
2018-02-05T06:01:05.896Z,98.58
2018-02-05T06:02:04.738Z,98.29
2018-02-05T06:03:04.865Z,98.39
2018-02-05T06:04:04.768Z,98.58
2018-02-05T06:05:04.819Z,98.77
2018-02-05T06:06:05.925Z,98.77
2018-02-05T06:07:04.869Z,98.86
2018-02-05T06:08:05.432Z,99.52
2018-02-05T06:10:04.812Z,98.77
2018-02-05T06:11:04.987Z,98.67
2018-02-05T06:12:04.954Z,98.48
2018-02-05T06:13:04.885Z,98.58
2018-02-05T06:15:04.951Z,98.86
2018-02-05T06:16:05.009Z,99.52
2018-02-05T06:17:04.908Z,99.05
2018-02-05T06:20:04.936Z,99.24
2018-02-05T06:21:05.988Z,99.43
2018-02-05T06:22:05.173Z,99.33
2018-02-05T06:23:05.207Z,99.52
2018-02-05T06:24:05.229Z,99.33
2018-02-05T06:25:05.132Z,99.43
2018-02-05T06:26:05.209Z,99.24
2018-02-05T06:27:04.970Z,99.90
2018-02-05T06:28:04.977Z,99.99
2018-02-05T06:29:04.989Z,99.90
2018-02-05T06:30:04.998Z,99.99
2018-02-05T06:31:05.007Z,99.80
2018-02-05T06:32:05.118Z,99.80
2018-02-05T06:33:05.026Z,99.71
2018-02-05T06:34:05.039Z,99.99
2018-02-05T06:36:05.543Z,99.99
2018-02-05T06:37:05.544Z,99.99
2018-02-05T06:39:05.900Z,99.99
2018-02-05T06:41:06.472Z,99.99
2018-02-05T06:42:06.677Z,99.85
2018-02-05T06:43:06.597Z,99.99
2018-02-05T06:44:05.861Z,99.99
2018-02-05T06:45:06.508Z,99.99
2018-02-05T06:46:05.357Z,99.99
2018-02-05T06:47:05.223Z,99.99
2018-02-05T06:48:05.683Z,99.99
2018-02-05T06:49:06.383Z,99.99
2018-02-05T06:50:05.528Z,99.99
2018-02-05T06:55:05.387Z,99.99
2018-02-05T06:56:05.937Z,99.99
2018-02-05T06:57:07.334Z,99.99
2018-02-05T06:59:07.455Z,99.99
2018-02-05T07:01:06.505Z,99.99
2018-02-05T07:02:05.326Z,99.99
2018-02-05T07:03:06.922Z,99.99
2018-02-05T07:04:05.647Z,99.99
2018-02-05T07:06:06.395Z,99.99
2018-02-05T07:07:08.683Z,99.99
2018-02-05T07:08:05.543Z,99.99
2018-02-05T07:11:05.427Z,99.99
2018-02-05T07:12:06.985Z,99.99
2018-02-05T07:14:05.463Z,99.99
2018-02-05T07:15:06.663Z,99.99
2018-02-05T07:16:06.906Z,99.99
2018-02-05T07:17:05.478Z,99.99
2018-02-05T07:18:05.485Z,99.99
2018-02-05T07:19:05.513Z,99.99
2018-02-05T07:20:05.768Z,99.99
2018-02-05T07:21:05.519Z,99.99
2018-02-05T07:23:05.586Z,99.99
2018-02-05T07:24:05.941Z,99.99
2018-02-05T07:26:07.042Z,99.99
2018-02-05T07:30:06.072Z,99.99
2018-02-05T07:31:05.769Z,99.99
2018-02-05T07:32:06.370Z,99.99
2018-02-05T07:36:06.396Z,99.99
2018-02-05T07:38:05.700Z,99.99
2018-02-05T07:39:06.686Z,99.99
2018-02-05T07:41:08.032Z,99.99
2018-02-05T07:43:07.202Z,99.99
2018-02-05T07:47:05.802Z,99.99
2018-02-05T07:48:05.792Z,99.99
2018-02-05T07:49:05.803Z,99.99
2018-02-05T07:50:06.553Z,99.99
2018-02-05T07:51:06.197Z,99.57
2018-02-05T07:52:07.852Z,99.99
2018-02-05T07:54:06.612Z,99.95
2018-02-05T07:56:06.954Z,99.99
2018-02-05T07:57:09.652Z,99.85
2018-02-05T08:00:09.303Z,99.99
2018-02-05T08:03:07.003Z,99.99
2018-02-05T08:04:06.444Z,99.99
2018-02-05T08:05:06.800Z,99.99
2018-02-05T08:07:06.411Z,99.99
2018-02-05T08:08:07.236Z,99.99
2018-02-05T08:09:06.425Z,99.99
2018-02-05T08:10:06.282Z,99.99
2018-02-05T08:11:06.799Z,99.99
2018-02-05T08:13:06.995Z,99.99
2018-02-05T08:14:06.145Z,99.99
2018-02-05T08:15:08.005Z,99.99
2018-02-05T08:16:07.642Z,99.99
2018-02-05T08:17:06.630Z,99.99
2018-02-05T08:19:07.525Z,99.99
2018-02-05T08:22:06.450Z,99.95
2018-02-05T08:23:06.952Z,99.66
2018-02-05T08:24:06.213Z,99.99
2018-02-05T08:25:07.340Z,99.99
2018-02-05T08:27:07.251Z,99.38
2018-02-05T08:28:07.524Z,99.85
2018-02-05T08:29:07.486Z,99.85
2018-02-05T08:31:07.119Z,99.99
2018-02-05T08:32:09.359Z,99.99
2018-02-05T08:33:06.479Z,99.48
2018-02-05T08:34:07.253Z,99.99
2018-02-05T08:35:06.487Z,99.99
2018-02-05T08:36:06.837Z,99.95
2018-02-05T08:37:08.165Z,99.95
2018-02-05T08:39:06.712Z,99.99
2018-02-05T08:45:08.245Z,99.95
2018-02-05T08:46:07.662Z,99.99
2018-02-05T08:48:07.722Z,99.76
2018-02-05T08:56:14.434Z,99.57
2018-02-05T08:58:07.775Z,98.34
2018-02-05T08:59:08.061Z,98.44
2018-02-05T09:04:20.718Z,98.44
2018-02-05T09:05:06.952Z,98.25
2018-02-05T09:06:07.289Z,98.53
2018-02-05T09:08:06.652Z,97.77
2018-02-05T09:09:06.619Z,98.06
2018-02-05T09:11:07.009Z,97.02
2018-02-05T09:12:06.840Z,97.02
2018-02-05T09:13:06.724Z,97.20
2018-02-05T09:16:08.360Z,96.54
2018-02-05T09:17:06.859Z,96.64
2018-02-05T09:18:06.856Z,96.83
2018-02-05T09:19:08.209Z,96.26
2018-02-05T09:22:09.754Z,96.73
2018-02-05T09:23:08.371Z,96.73
2018-02-05T09:24:06.787Z,96.73
2018-02-05T09:27:06.907Z,96.64
2018-02-05T09:28:06.830Z,96.45
2018-02-05T09:30:09.037Z,96.26
2018-02-05T09:31:07.135Z,96.78
2018-02-05T09:32:06.860Z,96.45
2018-02-05T09:33:07.132Z,96.64
2018-02-05T09:34:08.174Z,96.88
2018-02-05T09:35:07.040Z,95.31
2018-02-05T09:36:06.965Z,95.40
2018-02-05T09:37:07.463Z,95.40
2018-02-05T09:38:07.653Z,95.40
2018-02-05T09:40:08.798Z,95.45
2018-02-05T09:41:06.983Z,95.64
2018-02-05T09:42:06.963Z,95.64
2018-02-05T09:43:06.976Z,95.55
2018-02-05T09:44:07.000Z,95.26
2018-02-05T09:45:07.082Z,94.79
2018-02-05T09:46:07.834Z,94.51
2018-02-05T09:47:07.206Z,94.60
2018-02-05T09:48:07.286Z,94.60
2018-02-05T09:49:07.307Z,94.60
2018-02-05T09:50:08.981Z,94.42
2018-02-05T09:51:09.238Z,95.07
2018-02-05T09:52:07.858Z,94.98
2018-02-05T09:53:09.803Z,94.23
2018-02-05T09:54:10.388Z,93.94
2018-02-05T09:55:08.437Z,93.65
2018-02-05T09:56:09.497Z,93.65
2018-02-05T09:57:07.132Z,93.94
2018-02-05T09:58:07.552Z,93.75
2018-02-05T10:00:07.511Z,93.46
2018-02-05T10:01:07.172Z,93.56
2018-02-05T10:02:07.188Z,93.46
2018-02-05T10:04:07.384Z,93.84
2018-02-05T10:05:07.314Z,94.23
2018-02-05T10:06:07.856Z,93.56
2018-02-05T10:07:07.306Z,93.84
2018-02-05T10:08:07.328Z,93.46
2018-02-05T10:11:08.281Z,93.75
2018-02-05T10:12:07.301Z,93.94
2018-02-05T10:13:07.570Z,93.46
2018-02-05T10:14:07.363Z,93.46
2018-02-05T10:15:07.417Z,94.32
2018-02-05T10:16:07.468Z,93.65
2018-02-05T10:17:07.614Z,93.18
2018-02-05T10:18:07.866Z,93.08
2018-02-05T10:19:08.319Z,93.13
2018-02-05T10:20:07.474Z,93.70
2018-02-05T10:21:07.418Z,93.56
2018-02-05T10:22:07.549Z,93.42
2018-02-05T10:23:07.790Z,92.66
2018-02-05T10:24:09.555Z,93.04
2018-02-05T10:26:08.145Z,93.08
2018-02-05T10:27:07.919Z,92.90
2018-02-05T10:28:07.732Z,92.99
2018-02-05T10:29:08.748Z,92.52
2018-02-05T10:31:09.913Z,92.71
2018-02-05T10:32:11.242Z,92.80
2018-02-05T10:33:08.159Z,92.43
2018-02-05T10:34:07.698Z,92.71
2018-02-05T10:40:08.985Z,91.57
2018-02-05T10:41:09.603Z,91.95
2018-02-05T10:42:08.149Z,91.95
2018-02-05T10:43:08.772Z,92.33
2018-02-05T10:44:09.171Z,92.43
2018-02-05T10:45:09.045Z,92.61
2018-02-05T10:46:11.021Z,91.86
2018-02-05T10:47:09.684Z,92.24
2018-02-05T10:48:07.722Z,91.76
2018-02-05T10:49:07.735Z,91.57
2018-02-05T10:50:07.700Z,91.76
2018-02-05T10:51:07.712Z,91.57
2018-02-05T10:54:09.476Z,90.72
2018-02-05T10:57:07.926Z,91.00
2018-02-05T10:59:08.608Z,89.96
2018-02-05T11:01:08.000Z,89.68
2018-02-05T11:02:07.901Z,89.68
2018-02-05T11:03:07.848Z,89.58
2018-02-05T11:04:07.935Z,89.68
2018-02-05T11:05:08.868Z,89.30
2018-02-05T11:06:08.038Z,88.64
2018-02-05T11:08:10.192Z,88.26
2018-02-05T11:09:10.523Z,88.26
2018-02-05T11:10:08.091Z,88.54
2018-02-05T11:11:12.014Z,88.64
2018-02-05T11:12:12.020Z,89.58
2018-02-05T11:13:10.937Z,89.11
2018-02-05T11:15:11.975Z,88.92
2018-02-05T11:16:10.983Z,89.11
2018-02-05T11:17:10.318Z,89.30
2018-02-05T11:18:08.611Z,88.64
2018-02-05T11:19:08.033Z,88.17
2018-02-05T11:20:08.108Z,87.88
2018-02-05T11:21:09.913Z,88.07
2018-02-05T11:22:21.997Z,87.98
2018-02-05T11:23:09.660Z,87.59
2018-02-05T11:24:10.798Z,88.17
2018-02-05T11:26:08.096Z,87.98
2018-02-05T11:27:08.126Z,87.78
2018-02-05T11:28:08.726Z,88.07
2018-02-05T11:29:08.133Z,87.40
2018-02-05T11:30:08.605Z,87.40
2018-02-05T11:32:08.895Z,87.31
2018-02-05T11:33:09.207Z,87.78
2018-02-05T11:37:10.008Z,89.34
2018-02-05T11:38:08.231Z,87.92
2018-02-05T11:39:08.248Z,86.41
2018-02-05T11:40:08.451Z,86.36
2018-02-05T11:41:08.611Z,86.55
2018-02-05T11:42:08.284Z,86.93
2018-02-05T11:43:08.913Z,87.02
2018-02-05T11:45:08.307Z,87.12
2018-02-05T11:47:08.329Z,86.93
2018-02-05T11:48:08.340Z,86.88
2018-02-05T11:49:08.357Z,86.60
2018-02-05T11:50:09.149Z,86.60
2018-02-05T11:52:08.441Z,86.31
2018-02-05T11:53:08.514Z,85.93
2018-02-05T11:55:09.363Z,85.74
2018-02-05T11:56:09.858Z,85.93
2018-02-05T11:58:08.725Z,85.08
2018-02-05T12:00:09.094Z,85.23
2018-02-05T12:01:11.840Z,84.75
2018-02-05T12:02:10.144Z,85.89
2018-02-05T12:03:10.040Z,85.99
2018-02-05T12:06:08.591Z,85.32
2018-02-05T12:07:08.679Z,85.32
2018-02-05T12:08:08.575Z,85.42
2018-02-05T12:09:08.619Z,85.04
2018-02-05T12:10:08.601Z,85.42
2018-02-05T12:11:08.645Z,85.13
2018-02-05T12:13:10.061Z,84.85
2018-02-05T12:15:11.139Z,84.94
2018-02-05T12:20:09.483Z,83.33
2018-02-05T12:21:09.510Z,84.09
2018-02-05T12:22:09.250Z,83.33
2018-02-05T12:24:09.289Z,84.47
2018-02-05T12:25:09.759Z,84.38
2018-02-05T12:26:09.002Z,84.00
2018-02-05T12:27:09.421Z,83.62
2018-02-05T12:29:09.654Z,83.52
2018-02-05T12:30:10.139Z,83.14
2018-02-05T12:31:08.833Z,83.43
2018-02-05T12:32:08.927Z,82.39
2018-02-05T12:34:09.095Z,82.29
2018-02-05T12:35:10.587Z,82.48
2018-02-05T12:39:08.905Z,82.57
2018-02-05T12:40:09.017Z,82.39
2018-02-05T12:41:09.832Z,82.57
2018-02-05T12:46:09.020Z,81.86
2018-02-05T12:47:09.174Z,81.29
2018-02-05T12:48:09.528Z,81.10
2018-02-05T12:50:10.197Z,80.72
2018-02-05T12:51:09.389Z,80.44
2018-02-05T12:52:09.475Z,81.20
2018-02-05T12:54:09.470Z,81.95
2018-02-05T12:56:09.116Z,82.33
2018-02-05T12:57:09.403Z,82.33
2018-02-05T12:58:10.301Z,82.24
2018-02-05T13:00:09.144Z,82.14
2018-02-05T13:01:10.090Z,82.67
2018-02-05T13:02:16.692Z,82.43
2018-02-05T13:06:09.610Z,81.95
2018-02-05T13:07:09.370Z,82.14
2018-02-05T13:10:09.307Z,82.24
2018-02-05T13:12:09.425Z,82.14
2018-02-05T13:13:09.602Z,82.24
2018-02-05T13:15:10.316Z,82.33
2018-02-05T13:16:09.531Z,82.52
2018-02-05T13:17:10.890Z,82.14
2018-02-05T13:18:10.443Z,82.14
2018-02-05T13:19:10.454Z,81.86
2018-02-05T13:21:09.961Z,81.86
2018-02-05T13:23:09.408Z,82.29
2018-02-05T13:24:09.422Z,82.39
2018-02-05T13:25:09.957Z,82.20
2018-02-05T13:26:09.733Z,82.10
2018-02-05T13:27:10.252Z,82.48
2018-02-05T13:28:09.476Z,82.20
2018-02-05T13:30:09.616Z,82.39
2018-02-05T13:31:09.539Z,82.43
2018-02-05T13:32:10.252Z,82.57
2018-02-05T13:35:09.990Z,82.33
2018-02-05T13:37:09.748Z,82.62
2018-02-05T13:38:09.980Z,82.52
2018-02-05T13:40:09.654Z,82.52
2018-02-05T13:41:09.747Z,82.43
2018-02-05T13:42:09.627Z,82.71
2018-02-05T13:43:09.686Z,82.43
2018-02-05T13:44:10.158Z,82.52
2018-02-05T13:46:09.874Z,82.05
2018-02-05T13:47:09.809Z,81.86
2018-02-05T13:48:09.894Z,82.43
2018-02-05T13:50:10.588Z,81.95
2018-02-05T13:51:10.018Z,81.48
2018-02-05T13:52:09.785Z,81.48
2018-02-05T13:53:10.159Z,81.76
2018-02-05T13:54:09.855Z,81.57
2018-02-05T13:55:09.802Z,81.38
2018-02-05T13:57:09.786Z,81.44
2018-02-05T13:58:10.174Z,81.72
2018-02-05T14:00:10.155Z,81.25
2018-02-05T14:01:11.135Z,81.15
2018-02-05T14:03:09.919Z,80.40
2018-02-05T14:05:10.554Z,79.96
2018-02-05T14:12:09.946Z,80.11
2018-02-05T14:13:09.990Z,80.49
2018-02-05T14:14:10.613Z,80.40
2018-02-05T14:15:11.088Z,79.64
2018-02-05T14:16:10.219Z,79.93
2018-02-05T14:17:12.069Z,80.02
2018-02-05T14:18:10.773Z,79.83
2018-02-05T14:20:10.397Z,80.06
2018-02-05T14:22:10.738Z,79.68
2018-02-05T14:23:11.142Z,80.15
2018-02-05T14:24:10.499Z,80.15
2018-02-05T14:26:11.063Z,80.15
2018-02-05T14:31:10.478Z,80.02
2018-02-05T14:32:11.354Z,80.21
2018-02-05T14:33:11.863Z,80.02
2018-02-05T14:34:10.285Z,80.21
2018-02-05T14:36:11.098Z,80.30
2018-02-05T14:37:10.645Z,79.93
2018-02-05T14:38:10.265Z,80.02
2018-02-05T14:40:11.804Z,80.11
2018-02-05T14:41:10.812Z,79.83
2018-02-05T14:43:12.497Z,79.55
2018-02-05T14:44:10.301Z,80.21
2018-02-05T14:46:11.272Z,80.40
2018-02-05T14:47:11.306Z,79.83
2018-02-05T14:48:11.334Z,79.74
2018-02-05T14:49:11.285Z,79.55
2018-02-05T14:51:12.671Z,79.45
2018-02-05T14:52:12.149Z,79.26
2018-02-05T14:53:10.811Z,79.26
2018-02-05T14:54:10.409Z,79.74
2018-02-05T14:55:10.587Z,79.36
2018-02-05T14:56:11.150Z,78.98
2018-02-05T14:57:11.274Z,79.26
2018-02-05T14:58:11.447Z,79.74
2018-02-05T14:59:10.465Z,79.45
2018-02-05T15:00:10.466Z,79.36
2018-02-05T15:05:11.560Z,78.69
2018-02-05T15:06:11.296Z,78.31
2018-02-05T15:08:11.306Z,77.65
2018-02-05T15:10:12.425Z,78.79
2018-02-05T15:11:10.698Z,78.50
2018-02-05T15:13:11.651Z,78.13
2018-02-05T15:15:12.656Z,76.99
2018-02-05T15:17:12.029Z,78.03
2018-02-05T15:18:12.364Z,78.22
2018-02-05T15:19:11.076Z,78.13
2018-02-05T15:20:11.583Z,78.59
2018-02-05T15:23:12.451Z,78.31
2018-02-05T15:24:10.886Z,77.84
2018-02-05T15:25:12.962Z,78.13
2018-02-05T15:30:11.268Z,79.26
2018-02-05T15:31:12.149Z,79.36
2018-02-05T15:32:11.429Z,79.26
2018-02-05T15:33:11.697Z,79.74
2018-02-05T15:34:11.254Z,79.26
2018-02-05T15:35:12.663Z,79.45
2018-02-05T15:36:11.684Z,79.36
2018-02-05T15:37:11.514Z,79.17
2018-02-05T15:40:11.296Z,78.59
2018-02-05T15:41:11.632Z,78.59
2018-02-05T15:42:13.070Z,78.03
2018-02-05T15:44:12.488Z,79.36
2018-02-05T15:45:11.633Z,79.26
2018-02-05T15:46:13.643Z,78.31
2018-02-05T15:47:18.130Z,78.59
2018-02-05T15:50:11.809Z,78.13
2018-02-05T15:52:13.560Z,78.03
2018-02-05T15:54:13.103Z,78.22
2018-02-05T15:55:12.069Z,77.56
2018-02-05T15:57:12.985Z,78.22
2018-02-05T15:58:11.882Z,78.13
2018-02-05T15:59:11.699Z,78.59
2018-02-05T16:00:11.378Z,79.45
2018-02-05T16:01:11.631Z,79.64
2018-02-05T16:02:12.775Z,80.11
2018-02-05T16:03:11.823Z,80.58
2018-02-05T16:04:12.149Z,80.77
2018-02-05T16:05:11.256Z,80.77
2018-02-05T16:06:12.081Z,81.44
2018-02-05T16:07:11.655Z,81.25
2018-02-05T16:10:12.322Z,82.20
2018-02-05T16:11:12.378Z,82.01
2018-02-05T16:12:12.655Z,81.82
2018-02-05T16:13:12.737Z,81.63
2018-02-05T16:15:11.270Z,82.20
2018-02-05T16:17:11.492Z,82.48
2018-02-05T16:18:12.205Z,82.48
2018-02-05T16:19:12.050Z,82.39
2018-02-05T16:20:11.322Z,82.91
2018-02-05T16:22:11.346Z,82.91
2018-02-05T16:23:11.466Z,82.44
2018-02-05T16:24:13.441Z,82.72
2018-02-05T16:25:11.376Z,82.34
2018-02-05T16:26:12.302Z,82.44
2018-02-05T16:27:11.408Z,82.25
2018-02-05T16:28:11.826Z,82.34
2018-02-05T16:29:12.633Z,82.34
2018-02-05T16:30:12.323Z,82.44
2018-02-05T16:31:13.885Z,82.82
2018-02-05T16:32:12.042Z,82.91
2018-02-05T16:33:12.345Z,82.91
2018-02-05T16:34:12.509Z,82.53
2018-02-05T16:36:13.175Z,82.44
2018-02-05T16:38:12.224Z,82.82
2018-02-05T16:39:12.237Z,82.72
2018-02-05T16:40:13.955Z,83.39
2018-02-05T16:41:13.695Z,82.91
2018-02-05T16:44:11.939Z,82.91
2018-02-05T16:45:12.022Z,83.01
2018-02-05T16:46:12.251Z,82.82
2018-02-05T16:47:13.822Z,82.91
2018-02-05T16:48:11.865Z,83.10